createdAt,value
2022-12-15T00:02:54.085Z,8.20
2022-12-15T00:05:55.433Z,8.77
2022-12-15T00:08:56.730Z,8.27
2022-12-15T00:11:58.022Z,8.70
2022-12-15T00:14:59.311Z,9.43
2022-12-15T00:18:00.620Z,8.55
2022-12-15T00:21:01.906Z,9.15
2022-12-15T00:24:03.207Z,8.75
2022-12-15T00:27:04.524Z,8.80
2022-12-15T00:30:05.829Z,9.57
2022-12-15T00:33:07.129Z,9.55
2022-12-15T00:36:08.523Z,9.60
2022-12-15T00:39:09.821Z,10.45
2022-12-15T00:42:11.106Z,10.68
2022-12-15T00:45:12.410Z,10.73
2022-12-15T00:48:13.703Z,9.38
2022-12-15T00:51:14.992Z,11.48
2022-12-15T00:54:18.148Z,11.00
2022-12-15T00:57:19.687Z,10.57
2022-12-15T01:00:20.977Z,11.13
2022-12-15T01:03:22.403Z,10.60
2022-12-15T01:06:23.803Z,12.55
2022-12-15T01:09:25.106Z,12.60
2022-12-15T01:12:26.417Z,12.60
2022-12-15T01:15:27.695Z,10.90
2022-12-15T01:18:29.011Z,11.20
2022-12-15T01:21:30.294Z,11.18
2022-12-15T01:24:31.579Z,11.95
2022-12-15T01:27:32.893Z,11.80
2022-12-15T01:30:34.179Z,11.43
2022-12-15T01:33:35.454Z,10.77
2022-12-15T01:36:36.736Z,10.93
2022-12-15T01:39:38.035Z,10.68
2022-12-15T01:42:39.324Z,10.65
2022-12-15T01:45:40.622Z,10.37
2022-12-15T01:48:41.925Z,11.30
2022-12-15T01:51:43.226Z,10.15
2022-12-15T01:54:44.508Z,10.93
2022-12-15T01:57:49.772Z,11.20
2022-12-15T02:00:51.127Z,9.43
2022-12-15T02:03:52.470Z,10.02
2022-12-15T02:06:53.766Z,9.63
2022-12-15T02:09:55.047Z,10.30
2022-12-15T02:12:56.359Z,10.15
2022-12-15T02:15:57.712Z,10.27
2022-12-15T02:18:59.012Z,9.52
2022-12-15T02:22:00.314Z,9.60
2022-12-15T02:25:01.592Z,10.00
2022-12-15T02:28:02.886Z,9.93
2022-12-15T02:31:04.229Z,10.20
2022-12-15T02:34:05.582Z,10.10
2022-12-15T02:37:06.855Z,9.27
2022-12-15T02:40:08.151Z,10.05
2022-12-15T02:43:09.420Z,10.27
2022-12-15T02:46:10.754Z,9.33
2022-12-15T02:49:12.068Z,10.35
2022-12-15T02:52:13.360Z,9.48
2022-12-15T02:55:14.641Z,10.15
2022-12-15T02:58:15.945Z,9.85
2022-12-15T03:01:17.392Z,8.87
2022-12-15T03:04:18.804Z,8.60
2022-12-15T03:07:20.100Z,9.80
2022-12-15T03:10:21.376Z,9.38
2022-12-15T03:13:22.682Z,9.98
2022-12-15T03:16:24.025Z,9.80
2022-12-15T03:19:25.322Z,9.48
2022-12-15T03:22:26.617Z,9.75
2022-12-15T03:25:27.952Z,9.65
2022-12-15T03:28:29.247Z,9.95
2022-12-15T03:31:30.588Z,9.73
2022-12-15T03:34:31.929Z,9.57
2022-12-15T03:37:33.226Z,9.57
2022-12-15T03:40:34.523Z,9.55
2022-12-15T03:43:35.823Z,10.05
2022-12-15T03:46:37.124Z,10.20
2022-12-15T03:49:38.417Z,10.82
2022-12-15T03:52:39.724Z,9.13
2022-12-15T03:55:41.013Z,10.05
2022-12-15T03:58:42.318Z,9.85
2022-12-15T04:01:43.725Z,9.77
2022-12-15T04:04:45.115Z,10.68
2022-12-15T04:07:46.388Z,11.20
2022-12-15T04:10:47.674Z,10.73
2022-12-15T04:13:48.977Z,10.25
2022-12-15T04:16:50.309Z,11.40
2022-12-15T04:19:51.632Z,10.50
2022-12-15T04:22:52.930Z,11.60
2022-12-15T04:25:54.223Z,10.77
2022-12-15T04:28:55.496Z,11.02
2022-12-15T04:31:56.785Z,10.27
2022-12-15T04:34:58.091Z,10.38
2022-12-15T04:37:59.382Z,11.40
2022-12-15T04:41:00.662Z,11.32
2022-12-15T04:44:01.960Z,10.77
2022-12-15T04:47:03.256Z,11.87
2022-12-15T04:50:04.557Z,11.48
2022-12-15T04:53:05.825Z,11.48
2022-12-15T04:56:07.122Z,11.95
2022-12-15T04:59:08.410Z,11.73
2022-12-15T05:02:09.856Z,11.87
2022-12-15T05:05:11.259Z,11.45
2022-12-15T05:08:12.540Z,11.75
2022-12-15T05:11:13.835Z,11.40
2022-12-15T05:14:15.141Z,11.20
2022-12-15T05:17:16.469Z,11.30
2022-12-15T05:20:17.789Z,11.35
2022-12-15T05:23:19.087Z,12.23
2022-12-15T05:26:20.381Z,12.23
2022-12-15T05:29:21.675Z,11.43
2022-12-15T05:32:22.979Z,11.80
2022-12-15T05:35:24.271Z,11.13
2022-12-15T05:38:25.567Z,12.30
2022-12-15T05:41:26.835Z,12.05
2022-12-15T05:44:28.136Z,11.95
2022-12-15T05:47:29.428Z,11.77
2022-12-15T05:50:30.722Z,11.63
2022-12-15T05:53:32.472Z,12.75
2022-12-15T05:56:34.043Z,12.90
2022-12-15T05:59:35.330Z,12.18
2022-12-15T06:02:36.765Z,13.57
2022-12-15T06:05:38.082Z,13.57
2022-12-15T06:08:39.375Z,12.73
2022-12-15T06:11:40.678Z,12.95
2022-12-15T06:14:41.983Z,13.80
2022-12-15T06:17:43.288Z,14.07
2022-12-15T06:20:50.884Z,14.30
2022-12-15T06:23:52.176Z,13.38
2022-12-15T06:26:53.480Z,14.00
2022-12-15T06:29:54.781Z,14.32
2022-12-15T06:32:56.140Z,13.67
2022-12-15T06:35:57.448Z,13.15
2022-12-15T06:38:58.850Z,11.43
2022-12-15T06:42:00.149Z,13.00
2022-12-15T06:45:01.506Z,12.90
2022-12-15T06:48:02.810Z,12.40
2022-12-15T06:51:04.078Z,12.95
2022-12-15T06:54:05.533Z,13.45
2022-12-15T06:57:06.846Z,13.95
2022-12-15T07:00:08.149Z,15.55
2022-12-15T07:03:09.686Z,13.77
2022-12-15T07:06:11.118Z,14.38
2022-12-15T07:09:12.584Z,14.45
2022-12-15T07:12:13.871Z,14.05
2022-12-15T07:15:15.163Z,14.43
2022-12-15T07:18:16.458Z,15.03
2022-12-15T07:21:17.772Z,15.07
2022-12-15T07:24:19.064Z,13.95
2022-12-15T07:27:20.362Z,14.05
2022-12-15T07:30:21.648Z,13.15
2022-12-15T07:33:22.948Z,12.33
2022-12-15T07:36:24.223Z,13.90
2022-12-15T07:39:25.518Z,14.27
2022-12-15T07:42:27.823Z,13.88
2022-12-15T07:45:29.138Z,13.30
2022-12-15T07:48:30.514Z,13.13
2022-12-15T07:51:31.887Z,11.93
2022-12-15T07:54:33.252Z,12.25
2022-12-15T07:57:34.604Z,12.15
2022-12-15T08:00:35.928Z,12.13
2022-12-15T08:03:37.835Z,12.90
2022-12-15T08:06:39.653Z,12.52
2022-12-15T08:09:40.966Z,11.80
2022-12-15T08:12:42.284Z,21.83
2022-12-15T08:15:43.590Z,19.48
2022-12-15T08:18:44.886Z,19.10
2022-12-15T08:21:46.184Z,15.98
2022-12-15T08:24:47.493Z,15.40
2022-12-15T08:27:48.799Z,14.45
2022-12-15T08:30:50.092Z,14.25
2022-12-15T08:33:51.387Z,15.13
2022-12-15T08:36:52.708Z,16.60
2022-12-15T08:39:54.035Z,14.50
2022-12-15T08:42:55.602Z,15.23
2022-12-15T08:45:57.002Z,14.68
2022-12-15T08:48:58.331Z,15.17
2022-12-15T08:51:59.617Z,14.90
2022-12-15T08:55:00.916Z,15.35
2022-12-15T08:58:02.226Z,13.25
2022-12-15T09:01:03.616Z,14.43
2022-12-15T09:04:05.127Z,13.57
2022-12-15T09:07:06.467Z,13.95
2022-12-15T09:10:07.751Z,14.68
2022-12-15T09:13:09.055Z,15.35
2022-12-15T09:16:11.310Z,14.60
2022-12-15T09:19:12.949Z,14.63
2022-12-15T09:22:14.323Z,13.95
2022-12-15T09:25:15.625Z,12.63
2022-12-15T09:28:16.944Z,13.95
2022-12-15T09:31:18.269Z,15.73
2022-12-15T09:34:19.595Z,14.53
2022-12-15T09:37:20.888Z,13.35
2022-12-15T09:40:22.177Z,14.07
2022-12-15T09:43:44.512Z,13.82
2022-12-15T09:46:44.794Z,13.43
2022-12-15T09:49:51.523Z,13.53
2022-12-15T09:52:52.867Z,14.57
2022-12-15T09:55:54.176Z,13.52
2022-12-15T09:58:55.471Z,13.20
2022-12-15T10:01:57.161Z,12.98
2022-12-15T10:04:58.528Z,13.90
2022-12-15T10:07:59.865Z,14.13
2022-12-15T10:11:01.141Z,13.82
2022-12-15T10:14:02.450Z,14.73
2022-12-15T10:17:03.757Z,12.95
2022-12-15T10:20:05.044Z,14.07
2022-12-15T10:23:06.358Z,14.90
2022-12-15T10:26:07.631Z,15.80
2022-12-15T10:29:08.934Z,14.68
2022-12-15T10:32:10.372Z,16.52
2022-12-15T10:35:11.675Z,16.33
2022-12-15T10:38:14.502Z,17.23
2022-12-15T10:41:15.798Z,17.58
2022-12-15T10:44:17.133Z,17.20
2022-12-15T10:47:18.441Z,16.55
2022-12-15T10:50:24.474Z,17.10
2022-12-15T10:53:26.471Z,16.00
2022-12-15T10:56:33.178Z,14.90
2022-12-15T10:59:35.152Z,16.25
2022-12-15T11:02:36.930Z,15.60
2022-12-15T11:05:38.637Z,15.50
2022-12-15T11:08:39.921Z,15.80
2022-12-15T11:11:45.184Z,14.73
2022-12-15T11:14:47.586Z,14.93
2022-12-15T11:17:49.081Z,15.15
2022-12-15T11:20:52.031Z,16.53
2022-12-15T11:23:53.727Z,16.52
2022-12-15T11:26:56.051Z,16.63
2022-12-15T11:29:57.456Z,16.83
2022-12-15T11:32:58.879Z,16.23
2022-12-15T11:36:00.182Z,14.00
2022-12-15T11:39:01.624Z,14.82
2022-12-15T11:42:02.975Z,16.08
2022-12-15T11:45:04.272Z,14.10
2022-12-15T11:48:05.617Z,14.77
2022-12-15T11:51:06.891Z,15.63
2022-12-15T11:54:08.200Z,15.18
2022-12-15T11:57:09.484Z,15.55
2022-12-15T12:00:10.790Z,16.45
2022-12-15T12:03:12.185Z,15.00
2022-12-15T12:06:13.516Z,15.47
2022-12-15T12:09:14.837Z,15.30
2022-12-15T12:12:16.157Z,15.18
2022-12-15T12:15:17.449Z,15.23
2022-12-15T12:18:18.758Z,15.07
2022-12-15T12:21:20.056Z,15.77
2022-12-15T12:24:21.375Z,14.18
2022-12-15T12:27:22.939Z,14.43
2022-12-15T12:30:24.229Z,16.10
2022-12-15T12:33:25.511Z,15.60
2022-12-15T12:36:26.817Z,17.87
2022-12-15T12:39:28.141Z,16.15
2022-12-15T12:42:29.437Z,16.50
2022-12-15T12:45:30.701Z,16.00
2022-12-15T12:48:32.012Z,16.08
2022-12-15T12:51:33.331Z,16.57
2022-12-15T12:54:34.666Z,17.85
2022-12-15T12:57:36.014Z,18.08
2022-12-15T13:00:37.564Z,18.13
2022-12-15T13:03:38.965Z,18.85
2022-12-15T13:06:41.268Z,18.33
2022-12-15T13:09:42.698Z,16.60
2022-12-15T13:12:52.362Z,19.05
2022-12-15T13:15:54.428Z,18.67
2022-12-15T13:18:55.725Z,16.35
2022-12-15T13:21:57.046Z,16.40
2022-12-15T13:24:58.467Z,16.65
2022-12-15T13:28:00.251Z,17.40
2022-12-15T13:31:06.326Z,18.50
2022-12-15T13:34:07.828Z,17.48
2022-12-15T13:37:09.141Z,16.37
2022-12-15T13:40:10.518Z,17.48
2022-12-15T13:43:11.797Z,17.48
2022-12-15T13:46:13.147Z,16.80
2022-12-15T13:49:14.546Z,16.70
2022-12-15T13:52:15.921Z,17.50
2022-12-15T13:55:20.224Z,17.35
2022-12-15T13:58:23.943Z,15.95
2022-12-15T14:01:30.211Z,16.95
2022-12-15T14:04:33.478Z,16.98
2022-12-15T14:07:34.799Z,17.53
2022-12-15T14:10:36.093Z,18.20
2022-12-15T14:13:37.876Z,17.52
2022-12-15T14:16:39.292Z,16.75
2022-12-15T14:19:40.631Z,17.17
2022-12-15T14:22:41.946Z,18.50
2022-12-15T14:25:43.235Z,17.67
2022-12-15T14:28:44.566Z,17.63
2022-12-15T14:31:46.727Z,17.30
2022-12-15T14:34:50.699Z,16.80
2022-12-15T14:37:52.144Z,18.47
2022-12-15T14:40:54.748Z,16.75
2022-12-15T14:44:31.780Z,17.20
2022-12-15T14:47:17.352Z,19.05
2022-12-15T14:50:23.320Z,19.20
2022-12-15T14:53:26.298Z,17.50
2022-12-15T14:56:30.480Z,18.35
2022-12-15T14:59:32.395Z,19.13
2022-12-15T15:02:33.886Z,17.98
2022-12-15T15:05:35.257Z,17.58
2022-12-15T15:08:37.008Z,18.17
2022-12-15T15:11:38.599Z,17.50
2022-12-15T15:14:39.891Z,19.25
2022-12-15T15:17:41.240Z,18.48
2022-12-15T15:20:42.527Z,16.35
2022-12-15T15:23:43.816Z,17.77
2022-12-15T15:26:45.146Z,18.02
2022-12-15T15:29:46.482Z,16.63
2022-12-15T15:32:47.793Z,18.30
2022-12-15T15:35:49.091Z,18.73
2022-12-15T15:38:50.406Z,17.77
2022-12-15T15:41:52.456Z,22.00
2022-12-15T15:44:53.774Z,18.15
2022-12-15T15:47:56.355Z,19.20
2022-12-15T15:50:57.909Z,19.70
2022-12-15T15:53:59.187Z,18.20
2022-12-15T15:57:00.498Z,18.35
2022-12-15T16:00:01.793Z,18.42
2022-12-15T16:03:03.306Z,17.08
2022-12-15T16:06:04.777Z,34.67
2022-12-15T16:09:06.094Z,21.57
2022-12-15T16:12:07.383Z,19.67
2022-12-15T16:15:08.668Z,19.10
2022-12-15T16:18:09.982Z,20.23
2022-12-15T16:21:11.288Z,16.65
2022-12-15T16:24:12.599Z,19.53
2022-12-15T16:27:13.904Z,18.50
2022-12-15T16:30:15.231Z,16.85
2022-12-15T16:33:16.584Z,17.17
2022-12-15T16:36:17.909Z,22.17
2022-12-15T16:39:19.201Z,19.03
2022-12-15T16:42:20.512Z,18.10
2022-12-15T16:45:21.826Z,18.48
2022-12-15T16:48:23.503Z,18.48
2022-12-15T16:51:25.015Z,19.85
2022-12-15T16:54:26.325Z,19.13
2022-12-15T16:57:27.636Z,25.35
2022-12-15T17:00:31.882Z,25.75
2022-12-15T17:03:33.530Z,22.00
2022-12-15T17:06:35.299Z,21.20
2022-12-15T17:09:36.660Z,21.00
2022-12-15T17:12:37.966Z,18.95
2022-12-15T17:15:39.352Z,21.15
2022-12-15T17:18:40.731Z,19.27
2022-12-15T17:21:42.282Z,19.35
2022-12-15T17:24:43.605Z,19.57
2022-12-15T17:27:45.283Z,20.10
2022-12-15T17:30:46.785Z,19.00
2022-12-15T17:33:48.188Z,19.10
2022-12-15T17:36:49.508Z,18.88
2022-12-15T17:39:51.128Z,18.47
2022-12-15T17:42:52.798Z,17.98
2022-12-15T17:45:54.335Z,17.27
2022-12-15T17:48:55.742Z,18.48
2022-12-15T17:51:57.079Z,18.05
2022-12-15T17:54:58.725Z,17.57
2022-12-15T17:58:00.414Z,17.92
2022-12-15T18:01:01.784Z,17.17
2022-12-15T18:04:03.471Z,15.77
2022-12-15T18:07:04.937Z,17.80
2022-12-15T18:10:06.317Z,17.27
2022-12-15T18:13:07.630Z,16.10
2022-12-15T18:16:08.952Z,15.90
2022-12-15T18:19:10.403Z,15.88
2022-12-15T18:22:11.685Z,16.85
2022-12-15T18:25:13.327Z,16.47
2022-12-15T18:28:14.954Z,16.15
2022-12-15T18:31:16.773Z,16.20
2022-12-15T18:34:18.209Z,16.17
2022-12-15T18:37:20.747Z,15.93
2022-12-15T18:40:22.099Z,16.27
2022-12-15T18:43:23.396Z,15.55
2022-12-15T18:46:24.846Z,17.02
2022-12-15T18:49:26.539Z,15.60
2022-12-15T18:52:34.286Z,14.85
2022-12-15T18:55:36.123Z,15.23
2022-12-15T18:58:37.426Z,14.73
2022-12-15T19:01:38.923Z,15.93
2022-12-15T19:04:40.461Z,14.68
2022-12-15T19:07:42.225Z,15.77
2022-12-15T19:10:43.609Z,13.83
2022-12-15T19:13:46.385Z,14.73
2022-12-15T19:16:49.382Z,15.35
2022-12-15T19:19:51.066Z,15.02
2022-12-15T19:22:52.592Z,15.10
2022-12-15T19:25:54.637Z,15.13
2022-12-15T19:28:56.035Z,15.13
2022-12-15T19:31:57.707Z,14.05
2022-12-15T19:35:00.503Z,15.77
2022-12-15T19:38:02.117Z,15.27
2022-12-15T19:41:03.623Z,13.43
2022-12-15T19:44:05.236Z,15.02
2022-12-15T19:47:06.831Z,15.88
2022-12-15T19:50:08.158Z,13.45
2022-12-15T19:53:09.880Z,13.63
2022-12-15T19:56:11.715Z,13.50
2022-12-15T19:59:13.579Z,14.98
2022-12-15T20:02:15.256Z,13.43
2022-12-15T20:05:16.807Z,15.27
2022-12-15T20:08:18.130Z,13.77
2022-12-15T20:11:19.441Z,13.33
2022-12-15T20:14:21.161Z,13.85
2022-12-15T20:17:23.392Z,14.13
2022-12-15T20:20:24.909Z,13.77
2022-12-15T20:23:28.463Z,13.48
2022-12-15T20:26:29.869Z,13.53
2022-12-15T20:29:31.194Z,15.02
2022-12-15T20:32:38.078Z,12.82
2022-12-15T20:35:39.805Z,13.35
2022-12-15T20:38:41.564Z,13.63
2022-12-15T20:41:43.383Z,14.10
2022-12-15T20:44:45.147Z,13.48
2022-12-15T20:47:46.733Z,12.65
2022-12-15T20:50:48.449Z,13.07
2022-12-15T20:53:51.211Z,13.95
2022-12-15T20:56:52.744Z,13.60
2022-12-15T20:59:54.070Z,14.98
2022-12-15T21:02:55.578Z,13.43
2022-12-15T21:05:56.970Z,13.50
2022-12-15T21:08:58.281Z,14.52
2022-12-15T21:12:02.069Z,14.13
2022-12-15T21:15:07.146Z,13.32
2022-12-15T21:18:51.568Z,13.82
2022-12-15T21:21:29.741Z,12.85
2022-12-15T21:24:31.054Z,13.55
2022-12-15T21:27:32.358Z,14.03
2022-12-15T21:30:33.733Z,13.80
2022-12-15T21:33:35.052Z,13.25
2022-12-15T21:36:36.368Z,13.65
2022-12-15T21:39:37.656Z,13.52
2022-12-15T21:42:38.949Z,13.63
2022-12-15T21:45:40.249Z,13.88
2022-12-15T21:48:41.549Z,14.00
2022-12-15T21:51:42.953Z,13.40
2022-12-15T21:54:44.233Z,13.75
2022-12-15T21:57:45.534Z,12.80
2022-12-15T22:00:46.839Z,14.02
2022-12-15T22:03:48.128Z,13.25
2022-12-15T22:06:50.513Z,13.25
2022-12-15T22:09:52.032Z,13.27
2022-12-15T22:12:59.038Z,13.53
2022-12-15T22:16:01.030Z,13.68
2022-12-15T22:19:02.357Z,13.82
2022-12-15T22:22:03.659Z,12.75
2022-12-15T22:25:04.932Z,12.85
2022-12-15T22:28:06.236Z,12.63
2022-12-15T22:31:07.556Z,12.32
2022-12-15T22:34:08.902Z,15.52
2022-12-15T22:37:10.199Z,12.90
2022-12-15T22:40:11.491Z,12.95
2022-12-15T22:43:12.784Z,12.07
2022-12-15T22:46:14.165Z,12.43
2022-12-15T22:49:15.509Z,12.68
2022-12-15T22:52:16.801Z,12.95
2022-12-15T22:55:18.101Z,12.80
2022-12-15T22:58:19.441Z,12.70
2022-12-15T23:01:20.766Z,13.07
2022-12-15T23:04:22.084Z,13.23
2022-12-15T23:07:23.387Z,12.90
2022-12-15T23:10:24.698Z,12.65
2022-12-15T23:13:26.011Z,12.60
2022-12-15T23:16:27.367Z,12.75
2022-12-15T23:19:28.714Z,11.75
2022-12-15T23:22:30.005Z,11.60
2022-12-15T23:25:31.301Z,12.80
2022-12-15T23:28:32.587Z,12.40
2022-12-15T23:31:33.957Z,11.15
2022-12-15T23:34:35.333Z,11.15
2022-12-15T23:37:36.646Z,12.48
2022-12-15T23:40:37.929Z,10.98
2022-12-15T23:43:39.246Z,11.77
2022-12-15T23:46:40.560Z,11.10
2022-12-15T23:49:41.916Z,10.95
2022-12-15T23:52:43.236Z,11.57
2022-12-15T23:55:44.559Z,10.40
2022-12-15T23:58:45.848Z,10.77
